Time;durP1;ratioP1;P1;durP2;ratioP2;P2;SDS_P1;SDS_P2;PMS_P1;PMS_P2;Temp;Humidity;BMP_temperature;BMP_pressure;BME280_temperature;BME280_humidity;BME280_pressure;Samples;Min_cycle;Max_cycle;Signal;HPM_P1;HPM_P2
2022/06/20 00:00:59;;;;;;;7.85;1.10;;;;;;;;;;5093280;28;20032;-76
2022/06/20 00:03:26;;;;;;;3.92;1.25;;;;;;;;;;5090090;28;20085;-76
2022/06/20 00:05:53;;;;;;;9.43;1.55;;;;;;;;;;5091620;28;20473;-77
2022/06/20 00:08:19;;;;;;;5.60;1.00;;;;;;;;;;5084618;28;20028;-75
2022/06/20 00:10:46;;;;;;;11.10;2.65;;;;;;;;;;5082184;28;20032;-75
2022/06/20 00:13:21;;;;;;;8.30;2.65;;;;;;;;;;5059986;28;20039;-75
2022/06/20 00:15:47;;;;;;;7.75;1.55;;;;;;;;;;5084936;28;20037;-75
2022/06/20 00:18:13;;;;;;;8.52;1.40;;;;;;;;;;5068186;28;20032;-75
2022/06/20 00:20:40;;;;;;;11.43;1.73;;;;;;;;;;5071676;28;20051;-78
2022/06/20 00:23:06;;;;;;;10.93;1.30;;;;;;;;;;5085390;28;20048;-75
2022/06/20 00:25:32;;;;;;;9.07;1.63;;;;;;;;;;5073288;28;20032;-75
2022/06/20 00:27:59;;;;;;;10.63;1.40;;;;;;;;;;5081455;28;20043;-75
2022/06/20 00:30:25;;;;;;;6.13;1.75;;;;;;;;;;5068492;28;20028;-75
2022/06/20 00:32:51;;;;;;;10.73;1.42;;;;;;;;;;5082386;28;20032;-75
2022/06/20 00:35:18;;;;;;;12.32;2.35;;;;;;;;;;5088393;28;20028;-77
2022/06/20 00:37:46;;;;;;;7.03;1.52;;;;;;;;;;5070948;28;20368;-75
2022/06/20 00:40:19;;;;;;;9.35;1.65;;;;;;;;;;5070821;28;20028;-75
2022/06/20 00:42:45;;;;;;;3.30;1.05;;;;;;;;;;5086120;28;20105;-75
2022/06/20 00:45:13;;;;;;;11.85;1.63;;;;;;;;;;5080289;28;20040;-75
2022/06/20 00:47:40;;;;;;;9.80;1.75;;;;;;;;;;5089431;28;20034;-78
2022/06/20 00:50:12;;;;;;;7.93;1.70;;;;;;;;;;5077884;28;20024;-75
2022/06/20 00:53:01;;;;;;;11.07;1.52;;;;;;;;;;5082390;28;20375;-75
2022/06/20 00:55:30;;;;;;;7.10;1.85;;;;;;;;;;5066980;28;20079;-75
2022/06/20 00:57:57;;;;;;;5.88;1.15;;;;;;;;;;5086088;28;20107;-76
2022/06/20 01:00:26;;;;;;;5.32;1.08;;;;;;;;;;5090387;28;20040;-75
2022/06/20 01:02:54;;;;;;;7.80;1.85;;;;;;;;;;5082483;28;20048;-78
2022/06/20 01:05:27;;;;;;;6.90;1.60;;;;;;;;;;5067453;28;20044;-76
2022/06/20 01:08:13;;;;;;;5.72;0.95;;;;;;;;;;5091419;28;20032;-76
2022/06/20 01:10:43;;;;;;;5.05;1.10;;;;;;;;;;5061228;28;20432;-78
2022/06/20 01:13:12;;;;;;;7.22;1.38;;;;;;;;;;5076435;28;20024;-75
2022/06/20 01:15:39;;;;;;;6.20;1.20;;;;;;;;;;5092065;28;20028;-77
2022/06/20 01:18:11;;;;;;;10.02;2.10;;;;;;;;;;5073111;28;20024;-77
2022/06/20 01:20:38;;;;;;;6.07;0.98;;;;;;;;;;5073957;28;20033;-75
2022/06/20 01:23:20;;;;;;;7.18;1.20;;;;;;;;;;5077144;28;20044;-77
2022/06/20 01:25:52;;;;;;;7.35;1.67;;;;;;;;;;5087039;28;20480;-76
2022/06/20 01:28:21;;;;;;;6.60;1.10;;;;;;;;;;5074405;28;20024;-76
2022/06/20 01:30:48;;;;;;;6.95;1.83;;;;;;;;;;5079587;28;20032;-75
2022/06/20 01:33:16;;;;;;;5.35;1.42;;;;;;;;;;5086676;28;20024;-77
2022/06/20 01:38:28;;;;;;;6.10;1.25;;;;;;;;;;5074033;28;21329;-76
2022/06/20 01:43:39;;;;;;;10.52;1.52;;;;;;;;;;5084600;28;20507;-75
2022/06/20 01:46:09;;;;;;;6.25;2.33;;;;;;;;;;5094326;28;20733;-75
2022/06/20 01:48:36;;;;;;;7.93;2.10;;;;;;;;;;5082816;28;20032;-78
2022/06/20 01:51:03;;;;;;;6.20;1.08;;;;;;;;;;5076883;28;20028;-77
2022/06/20 01:53:32;;;;;;;7.50;1.42;;;;;;;;;;5087789;28;20028;-76
2022/06/20 01:55:58;;;;;;;3.75;1.25;;;;;;;;;;5089099;28;20024;-75
2022/06/20 01:58:31;;;;;;;7.32;1.75;;;;;;;;;;5064341;28;20032;-76
2022/06/20 02:00:58;;;;;;;8.90;1.60;;;;;;;;;;5075836;28;20060;-77
2022/06/20 02:03:24;;;;;;;6.35;1.92;;;;;;;;;;5083277;28;20024;-77
2022/06/20 02:05:56;;;;;;;8.18;1.63;;;;;;;;;;5079428;28;20044;-77
2022/06/20 02:08:24;;;;;;;4.80;1.20;;;;;;;;;;5083833;28;20472;-76
2022/06/20 02:10:53;;;;;;;6.00;1.20;;;;;;;;;;5073791;28;20538;-76
2022/06/20 02:13:20;;;;;;;5.25;1.92;;;;;;;;;;5076447;28;20097;-74
2022/06/20 02:15:47;;;;;;;9.63;1.60;;;;;;;;;;5086350;28;20044;-77
2022/06/20 02:18:14;;;;;;;8.30;1.25;;;;;;;;;;5097297;28;20120;-75
2022/06/20 02:20:46;;;;;;;6.22;1.70;;;;;;;;;;5087813;28;20162;-74
2022/06/20 02:23:16;;;;;;;6.85;1.42;;;;;;;;;;5089556;28;20044;-76
2022/06/20 02:25:43;;;;;;;7.57;1.48;;;;;;;;;;5079641;28;20050;-77
2022/06/20 02:28:12;;;;;;;5.65;1.70;;;;;;;;;;5070627;28;20027;-75
2022/06/20 02:30:39;;;;;;;4.20;1.27;;;;;;;;;;5090134;28;20016;-76
2022/06/20 02:33:09;;;;;;;5.50;1.52;;;;;;;;;;5066161;28;20127;-77
2022/06/20 02:35:36;;;;;;;9.43;2.30;;;;;;;;;;5079673;28;20033;-75
2022/06/20 02:38:02;;;;;;;10.00;2.20;;;;;;;;;;5069717;28;20102;-76
2022/06/20 02:40:30;;;;;;;9.07;1.30;;;;;;;;;;5085806;28;20431;-75
2022/06/20 02:43:17;;;;;;;9.98;1.88;;;;;;;;;;5081549;28;20380;-76
2022/06/20 02:45:44;;;;;;;4.47;1.38;;;;;;;;;;5081447;28;20032;-75
2022/06/20 02:48:11;;;;;;;7.32;1.50;;;;;;;;;;5090364;28;20024;-75
2022/06/20 02:50:43;;;;;;;5.20;1.10;;;;;;;;;;5087180;28;20107;-75
2022/06/20 02:53:17;;;;;;;4.20;1.65;;;;;;;;;;5062787;28;20017;-76
2022/06/20 02:55:43;;;;;;;7.20;2.08;;;;;;;;;;5086230;28;20173;-75
2022/06/20 02:58:15;;;;;;;9.75;1.83;;;;;;;;;;5092777;28;20380;-76
2022/06/20 03:00:47;;;;;;;11.10;1.58;;;;;;;;;;5085599;28;20048;-76
2022/06/20 03:03:23;;;;;;;13.50;1.73;;;;;;;;;;5091120;28;20028;-76
2022/06/20 03:05:49;;;;;;;8.57;2.45;;;;;;;;;;5084319;28;20036;-76
2022/06/20 03:08:16;;;;;;;4.68;1.60;;;;;;;;;;5087804;28;20031;-75
2022/06/20 03:10:44;;;;;;;7.70;1.45;;;;;;;;;;5075554;28;20024;-75
2022/06/20 03:13:12;;;;;;;5.40;1.30;;;;;;;;;;5073283;28;20016;-75
2022/06/20 03:15:38;;;;;;;9.85;2.33;;;;;;;;;;5083636;28;20028;-75
2022/06/20 03:18:05;;;;;;;5.43;1.30;;;;;;;;;;5080782;28;20037;-76
2022/06/20 03:20:31;;;;;;;9.52;1.88;;;;;;;;;;5091555;28;20032;-75
2022/06/20 03:23:03;;;;;;;7.75;1.25;;;;;;;;;;5081125;28;20531;-75
2022/06/20 03:25:29;;;;;;;7.85;1.55;;;;;;;;;;5084894;28;20047;-75
2022/06/20 03:27:55;;;;;;;5.38;1.55;;;;;;;;;;5090264;28;20036;-76
2022/06/20 03:30:24;;;;;;;9.57;1.40;;;;;;;;;;5088223;28;20033;-75
2022/06/20 03:32:51;;;;;;;5.30;1.92;;;;;;;;;;5077938;28;20051;-75
2022/06/20 03:35:17;;;;;;;10.70;1.65;;;;;;;;;;5089244;28;20036;-75
2022/06/20 03:37:43;;;;;;;7.65;1.70;;;;;;;;;;5078925;28;20090;-75
2022/06/20 03:40:10;;;;;;;8.15;1.95;;;;;;;;;;5070329;28;20032;-75
2022/06/20 03:42:36;;;;;;;6.40;1.88;;;;;;;;;;5087617;28;20383;-75
2022/06/20 03:45:04;;;;;;;6.75;2.05;;;;;;;;;;5098411;28;20062;-75
2022/06/20 03:47:40;;;;;;;14.98;1.55;;;;;;;;;;5082337;28;20074;-75
2022/06/20 03:50:10;;;;;;;8.25;2.30;;;;;;;;;;5080534;28;20049;-76
2022/06/20 03:52:39;;;;;;;5.20;2.47;;;;;;;;;;5074591;28;20036;-75
2022/06/20 03:55:09;;;;;;;7.97;2.47;;;;;;;;;;5091460;28;20111;-75
2022/06/20 03:57:41;;;;;;;7.15;1.52;;;;;;;;;;5069314;28;20473;-75
2022/06/20 04:00:11;;;;;;;6.85;1.75;;;;;;;;;;5091342;28;20102;-76
2022/06/20 04:02:42;;;;;;;8.43;2.30;;;;;;;;;;5085041;28;20524;-76
2022/06/20 04:05:10;;;;;;;13.00;2.63;;;;;;;;;;5087345;28;20115;-76
2022/06/20 04:07:49;;;;;;;7.15;2.35;;;;;;;;;;5075104;28;20024;-76
2022/06/20 04:13:05;;;;;;;11.57;4.15;;;;;;;;;;5086531;28;20045;-76
2022/06/20 04:15:37;;;;;;;16.02;4.93;;;;;;;;;;5087745;28;20071;-76
2022/06/20 04:21:07;;;;;;;7.30;2.88;;;;;;;;;;5082602;28;20055;-74
2022/06/20 04:23:36;;;;;;;7.22;2.53;;;;;;;;;;5072738;28;20049;-74
2022/06/20 04:26:05;;;;;;;11.40;2.92;;;;;;;;;;5088956;28;20047;-77
2022/06/20 04:28:34;;;;;;;3.78;1.83;;;;;;;;;;5088781;28;20130;-74
2022/06/20 04:31:09;;;;;;;8.60;3.17;;;;;;;;;;5089365;28;20106;-74
2022/06/20 04:33:39;;;;;;;8.57;2.35;;;;;;;;;;5089785;28;20436;-74
2022/06/20 04:36:06;;;;;;;7.47;1.73;;;;;;;;;;5063854;28;20078;-75
2022/06/20 04:38:36;;;;;;;5.75;1.98;;;;;;;;;;5070964;28;20058;-75
2022/06/20 04:41:24;;;;;;;9.90;2.70;;;;;;;;;;5086977;28;20019;-75
2022/06/20 04:43:54;;;;;;;7.78;2.00;;;;;;;;;;5085641;28;20024;-74
2022/06/20 04:46:38;;;;;;;5.13;1.98;;;;;;;;;;5070458;28;20055;-74
2022/06/20 04:49:04;;;;;;;10.00;2.35;;;;;;;;;;5071134;28;20135;-75
2022/06/20 04:51:33;;;;;;;11.65;3.30;;;;;;;;;;5076023;28;20033;-75
2022/06/20 04:53:59;;;;;;;10.82;3.45;;;;;;;;;;5084105;28;20119;-75
2022/06/20 04:56:28;;;;;;;8.73;2.42;;;;;;;;;;5081409;28;20047;-75
2022/06/20 04:58:58;;;;;;;8.95;2.70;;;;;;;;;;5098540;28;20039;-76
2022/06/20 05:01:25;;;;;;;7.85;2.40;;;;;;;;;;5087524;28;20029;-76
2022/06/20 05:03:55;;;;;;;9.45;2.22;;;;;;;;;;5084230;28;20024;-76
2022/06/20 05:06:23;;;;;;;8.48;3.33;;;;;;;;;;5085551;28;20040;-76
2022/06/20 05:08:51;;;;;;;12.45;3.03;;;;;;;;;;5074378;28;20059;-75
2022/06/20 05:11:24;;;;;;;9.85;2.42;;;;;;;;;;5077952;28;20029;-75
2022/06/20 05:14:01;;;;;;;7.60;2.42;;;;;;;;;;5072670;28;20048;-75
2022/06/20 05:16:30;;;;;;;9.48;2.50;;;;;;;;;;5079179;28;20028;-75
2022/06/20 05:18:58;;;;;;;11.23;2.83;;;;;;;;;;5084217;28;20024;-75
2022/06/20 05:21:31;;;;;;;11.18;2.55;;;;;;;;;;5086058;28;20024;-75
2022/06/20 05:24:03;;;;;;;20.25;9.40;;;;;;;;;;5085055;28;20040;-74
2022/06/20 05:26:34;;;;;;;12.52;3.03;;;;;;;;;;5062288;28;20055;-73
2022/06/20 05:29:03;;;;;;;10.80;4.10;;;;;;;;;;5074621;28;20048;-73
2022/06/20 05:31:31;;;;;;;11.82;3.05;;;;;;;;;;5082204;28;20285;-75
2022/06/20 05:34:10;;;;;;;12.68;4.00;;;;;;;;;;5080889;28;20035;-75
2022/06/20 05:36:54;;;;;;;11.05;3.53;;;;;;;;;;5071451;28;20036;-76
2022/06/20 05:39:25;;;;;;;9.13;2.90;;;;;;;;;;5082868;28;20467;-77
2022/06/20 05:41:51;;;;;;;14.20;3.45;;;;;;;;;;5084630;28;20028;-77
2022/06/20 05:44:17;;;;;;;16.30;3.28;;;;;;;;;;5072822;28;20035;-76
2022/06/20 05:46:44;;;;;;;15.52;3.10;;;;;;;;;;5074856;28;20040;-75
2022/06/20 05:49:16;;;;;;;14.23;2.95;;;;;;;;;;5082856;28;20035;-76
2022/06/20 05:51:44;;;;;;;16.85;4.55;;;;;;;;;;5074330;28;20021;-75
2022/06/20 05:54:15;;;;;;;13.18;2.92;;;;;;;;;;5087013;28;20044;-76
2022/06/20 05:56:43;;;;;;;20.48;3.90;;;;;;;;;;5084135;28;20383;-75
2022/06/20 05:59:17;;;;;;;22.08;7.68;;;;;;;;;;5099728;28;20144;-75
2022/06/20 06:01:43;;;;;;;14.20;5.30;;;;;;;;;;5085781;28;20064;-75
2022/06/20 06:04:18;;;;;;;11.05;3.20;;;;;;;;;;5076221;28;20028;-76
2022/06/20 06:06:57;;;;;;;13.13;2.90;;;;;;;;;;5081926;28;20043;-75
2022/06/20 06:09:38;;;;;;;11.20;2.72;;;;;;;;;;5075706;28;20463;-74
2022/06/20 06:12:06;;;;;;;13.48;3.15;;;;;;;;;;5077874;28;20032;-74
2022/06/20 06:14:40;;;;;;;9.60;3.47;;;;;;;;;;5079760;28;20052;-74
2022/06/20 06:17:15;;;;;;;10.18;2.95;;;;;;;;;;5091861;28;20024;-73
2022/06/20 06:19:44;;;;;;;7.80;2.78;;;;;;;;;;5082276;28;20110;-73
2022/06/20 06:22:17;;;;;;;10.85;2.97;;;;;;;;;;5075788;28;20042;-73
2022/06/20 06:24:43;;;;;;;;;;;;;;;;;;5085302;28;20047;-73
2022/06/20 06:27:12;;;;;;;7.75;2.25;;;;;;;;;;5089426;28;19990;-73
2022/06/20 06:29:49;;;;;;;14.80;3.35;;;;;;;;;;5072408;28;20032;-74
2022/06/20 06:32:18;;;;;;;17.95;2.80;;;;;;;;;;5107252;28;20097;-74
2022/06/20 06:34:48;;;;;;;14.05;3.25;;;;;;;;;;5086598;28;20963;-74
2022/06/20 06:37:22;;;;;;;9.18;2.47;;;;;;;;;;5081187;28;20028;-74
2022/06/20 06:39:48;;;;;;;13.88;2.90;;;;;;;;;;5076204;28;20832;-74
2022/06/20 06:42:15;;;;;;;12.48;2.80;;;;;;;;;;5086955;28;20463;-74
2022/06/20 06:44:43;;;;;;;10.73;2.17;;;;;;;;;;5093085;28;20112;-74
2022/06/20 06:47:17;;;;;;;11.38;2.17;;;;;;;;;;5089203;28;20479;-74
2022/06/20 06:49:45;;;;;;;12.18;4.03;;;;;;;;;;5071416;28;20024;-74
2022/06/20 06:52:21;;;;;;;11.85;2.38;;;;;;;;;;5085169;28;20024;-74
2022/06/20 06:55:00;;;;;;;14.60;2.28;;;;;;;;;;5085737;28;20032;-73
2022/06/20 06:57:36;;;;;;;8.32;2.35;;;;;;;;;;5088076;28;20103;-76
2022/06/20 07:00:05;;;;;;;10.18;2.55;;;;;;;;;;5085572;28;20024;-75
2022/06/20 07:02:42;;;;;;;11.20;2.30;;;;;;;;;;5086237;28;20471;-75
2022/06/20 07:05:18;;;;;;;14.27;2.50;;;;;;;;;;5076015;28;20111;-74
2022/06/20 07:07:44;;;;;;;10.18;2.95;;;;;;;;;;5077874;28;20260;-75
2022/06/20 07:10:17;;;;;;;9.20;2.63;;;;;;;;;;5067346;28;20466;-74
2022/06/20 07:12:53;;;;;;;8.43;1.80;;;;;;;;;;5093114;28;20060;-74
2022/06/20 07:15:23;;;;;;;18.98;9.93;;;;;;;;;;5110412;28;20035;-75
2022/06/20 07:17:56;;;;;;;18.55;7.47;;;;;;;;;;5091439;28;20385;-74
2022/06/20 07:20:24;;;;;;;12.35;2.10;;;;;;;;;;5086835;28;20357;-74
2022/06/20 07:22:50;;;;;;;9.75;2.75;;;;;;;;;;5074255;28;20047;-74
2022/06/20 07:25:18;;;;;;;9.43;2.70;;;;;;;;;;5078653;28;20135;-75
2022/06/20 07:27:48;;;;;;;8.10;1.77;;;;;;;;;;5074119;28;20052;-75
2022/06/20 07:30:16;;;;;;;10.90;2.17;;;;;;;;;;5094442;28;20636;-74
2022/06/20 07:32:48;;;;;;;7.55;2.00;;;;;;;;;;5082799;28;20447;-74
2022/06/20 07:35:17;;;;;;;8.15;1.75;;;;;;;;;;5084442;28;20040;-74
2022/06/20 07:37:48;;;;;;;7.43;1.90;;;;;;;;;;5080226;28;20028;-73
2022/06/20 07:40:23;;;;;;;11.88;2.10;;;;;;;;;;5081217;28;20039;-73
2022/06/20 07:42:55;;;;;;;5.38;1.20;;;;;;;;;;5081606;28;20476;-73
2022/06/20 07:45:27;;;;;;;7.40;1.13;;;;;;;;;;5074127;28;20064;-73
2022/06/20 07:47:53;;;;;;;;;;;;;;;;;;5078685;28;20479;-73
2022/06/20 07:50:21;;;;;;;4.35;1.08;;;;;;;;;;5070730;28;20033;-74
2022/06/20 07:53:08;;;;;;;13.55;1.58;;;;;;;;;;5077861;28;20052;-74
2022/06/20 07:55:34;;;;;;;6.40;1.17;;;;;;;;;;5084144;28;20165;-76
2022/06/20 07:58:05;;;;;;;6.63;1.73;;;;;;;;;;5082380;28;20028;-75
2022/06/20 08:00:38;;;;;;;6.10;1.30;;;;;;;;;;5082893;28;20399;-74
2022/06/20 08:03:10;;;;;;;8.73;1.88;;;;;;;;;;5078591;28;20074;-75
2022/06/20 08:05:38;;;;;;;4.90;1.67;;;;;;;;;;5082441;28;20046;-75
2022/06/20 08:08:07;;;;;;;4.95;1.25;;;;;;;;;;5077273;28;20032;-75
2022/06/20 08:10:35;;;;;;;4.47;1.25;;;;;;;;;;5074672;28;20021;-75
2022/06/20 08:13:13;;;;;;;4.28;1.27;;;;;;;;;;5077997;28;20028;-73
2022/06/20 08:15:45;;;;;;;5.20;1.27;;;;;;;;;;5077525;28;20548;-75
2022/06/20 08:18:12;;;;;;;6.70;1.13;;;;;;;;;;5086294;28;20471;-75
2022/06/20 08:20:40;;;;;;;5.07;1.73;;;;;;;;;;5067276;28;20047;-75
2022/06/20 08:23:16;;;;;;;5.78;1.60;;;;;;;;;;5074516;28;20055;-74
2022/06/20 08:25:51;;;;;;;3.65;1.13;;;;;;;;;;5078134;28;20044;-75
2022/06/20 08:28:21;;;;;;;8.20;1.92;;;;;;;;;;5089884;28;20375;-74
2022/06/20 08:30:54;;;;;;;4.07;1.30;;;;;;;;;;5065815;28;20516;-75
2022/06/20 08:33:26;;;;;;;7.18;1.70;;;;;;;;;;5083926;28;20035;-74
2022/06/20 08:35:57;;;;;;;9.55;1.52;;;;;;;;;;5071947;28;20040;-73
2022/06/20 08:38:34;;;;;;;4.55;1.25;;;;;;;;;;5069526;28;20035;-74
2022/06/20 08:41:20;;;;;;;6.65;1.88;;;;;;;;;;5073136;28;20028;-69
2022/06/20 08:43:56;;;;;;;5.25;1.70;;;;;;;;;;5081737;28;20552;-69
2022/06/20 08:46:24;;;;;;;5.32;1.13;;;;;;;;;;5078382;28;20102;-74
2022/06/20 08:48:50;;;;;;;7.20;2.10;;;;;;;;;;5083466;28;20081;-74
2022/06/20 08:51:28;;;;;;;7.05;1.40;;;;;;;;;;5088509;28;20036;-74
2022/06/20 08:54:06;;;;;;;5.63;1.17;;;;;;;;;;5074155;28;20345;-74
2022/06/20 08:56:35;;;;;;;5.85;1.35;;;;;;;;;;5071241;28;20387;-75
2022/06/20 08:59:07;;;;;;;6.07;1.70;;;;;;;;;;5070064;28;20043;-74
2022/06/20 09:01:41;;;;;;;8.20;1.40;;;;;;;;;;5077940;28;20505;-74
2022/06/20 09:04:10;;;;;;;4.85;1.30;;;;;;;;;;5079684;28;20028;-75
2022/06/20 09:06:48;;;;;;;6.47;1.40;;;;;;;;;;5073612;28;20102;-74
2022/06/20 09:09:20;;;;;;;3.78;1.40;;;;;;;;;;5075342;28;20529;-75
2022/06/20 09:12:22;;;;;;;5.28;1.42;;;;;;;;;;5089800;28;20020;-74
2022/06/20 09:14:57;;;;;;;6.45;1.23;;;;;;;;;;5025849;28;20524;-75
2022/06/20 09:17:34;;;;;;;5.72;2.22;;;;;;;;;;5080099;28;20303;-75
2022/06/20 09:20:19;;;;;;;4.97;0.95;;;;;;;;;;5076567;28;20468;-75
2022/06/20 09:23:03;;;;;;;7.47;1.23;;;;;;;;;;5086815;28;20016;-75
2022/06/20 09:25:47;;;;;;;8.55;2.17;;;;;;;;;;5067311;28;20127;-74
2022/06/20 09:28:26;;;;;;;6.68;1.58;;;;;;;;;;5080769;28;20028;-74
2022/06/20 09:31:20;;;;;;;7.78;1.98;;;;;;;;;;5091670;28;20031;-74
2022/06/20 09:34:01;;;;;;;6.65;1.83;;;;;;;;;;5063426;28;20024;-75
2022/06/20 09:36:41;;;;;;;8.30;1.23;;;;;;;;;;5087344;28;20432;-74
2022/06/20 09:39:22;;;;;;;8.93;1.67;;;;;;;;;;5075226;28;20031;-74
2022/06/20 09:42:03;;;;;;;11.15;3.10;;;;;;;;;;5058600;28;20024;-72
2022/06/20 09:44:53;;;;;;;8.30;1.73;;;;;;;;;;5091578;28;20038;-73
2022/06/20 09:47:20;;;;;;;4.07;1.00;;;;;;;;;;5053613;28;20042;-74
2022/06/20 09:49:52;;;;;;;5.30;1.45;;;;;;;;;;5074223;28;20060;-74
2022/06/20 09:52:18;;;;;;;5.47;1.10;;;;;;;;;;5087030;28;20395;-75
2022/06/20 09:55:17;;;;;;;5.95;1.80;;;;;;;;;;5066818;28;20480;-74
2022/06/20 09:57:56;;;;;;;5.13;1.00;;;;;;;;;;5050695;28;20089;-74
2022/06/20 10:00:25;;;;;;;3.90;1.15;;;;;;;;;;5079248;28;20025;-74
2022/06/20 10:03:06;;;;;;;3.72;1.33;;;;;;;;;;5083719;28;20028;-74
2022/06/20 10:05:42;;;;;;;4.13;1.02;;;;;;;;;;5075141;28;20040;-74
2022/06/20 10:08:08;;;;;;;2.97;1.00;;;;;;;;;;5074832;28;20028;-75
2022/06/20 10:10:54;;;;;;;3.50;0.88;;;;;;;;;;5084343;28;20093;-75
2022/06/20 10:13:39;;;;;;;6.25;2.08;;;;;;;;;;5088292;28;20024;-75
2022/06/20 10:16:11;;;;;;;8.98;1.40;;;;;;;;;;5091575;28;20035;-75
2022/06/20 10:18:42;;;;;;;6.90;1.65;;;;;;;;;;5089717;28;20024;-75
2022/06/20 10:21:17;;;;;;;9.13;1.88;;;;;;;;;;5088275;28;20464;-74
2022/06/20 10:23:43;;;;;;;5.97;1.30;;;;;;;;;;5087167;28;20459;-74
2022/06/20 10:26:23;;;;;;;7.90;1.63;;;;;;;;;;5083346;28;20472;-75
2022/06/20 10:28:49;;;;;;;7.65;1.55;;;;;;;;;;5087268;28;20112;-74
2022/06/20 10:31:15;;;;;;;12.65;1.52;;;;;;;;;;5082632;28;20495;-75
2022/06/20 10:34:07;;;;;;;7.43;1.20;;;;;;;;;;5084248;28;20090;-74
2022/06/20 10:36:35;;;;;;;;;;;;;;;;;;5080723;28;20046;-74
2022/06/20 10:39:08;;;;;;;8.65;1.42;;;;;;;;;;5080051;28;19912;-75
2022/06/20 10:41:37;;;;;;;4.00;1.10;;;;;;;;;;5088479;28;20032;-74
2022/06/20 10:44:11;;;;;;;6.80;1.42;;;;;;;;;;5091201;28;20031;-74
2022/06/20 10:46:45;;;;;;;3.80;1.10;;;;;;;;;;5064868;28;20039;-75
2022/06/20 10:49:11;;;;;;;4.65;1.45;;;;;;;;;;5089586;28;20051;-74
2022/06/20 10:51:43;;;;;;;6.78;1.13;;;;;;;;;;5087287;28;20097;-75
2022/06/20 10:54:19;;;;;;;5.95;1.40;;;;;;;;;;5091369;28;20417;-75
2022/06/20 10:57:05;;;;;;;6.18;1.33;;;;;;;;;;5088529;28;20098;-75
2022/06/20 10:59:31;;;;;;;6.47;1.30;;;;;;;;;;5089971;28;20032;-75
2022/06/20 11:02:09;;;;;;;5.72;1.67;;;;;;;;;;5078822;28;20442;-75
2022/06/20 11:04:58;;;;;;;4.45;1.50;;;;;;;;;;5079963;28;20040;-75
2022/06/20 11:07:34;;;;;;;8.35;2.63;;;;;;;;;;5072913;28;20053;-76
2022/06/20 11:10:00;;;;;;;8.35;1.70;;;;;;;;;;5081871;28;20020;-75
2022/06/20 11:12:41;;;;;;;5.35;1.73;;;;;;;;;;5078804;28;20032;-76
2022/06/20 11:15:19;;;;;;;8.83;1.73;;;;;;;;;;5080963;28;20030;-75
2022/06/20 11:17:59;;;;;;;6.35;2.13;;;;;;;;;;5067599;28;20328;-76
2022/06/20 11:20:30;;;;;;;4.72;1.02;;;;;;;;;;5068777;28;20024;-76
2022/06/20 11:23:05;;;;;;;3.10;1.10;;;;;;;;;;5076195;28;20024;-77
2022/06/20 11:25:53;;;;;;;4.20;0.82;;;;;;;;;;5081709;28;20392;-76
2022/06/20 11:28:42;;;;;;;6.25;1.27;;;;;;;;;;5088725;28;20789;-76
2022/06/20 11:31:18;;;;;;;4.05;0.95;;;;;;;;;;5083242;28;20134;-76
2022/06/20 11:34:03;;;;;;;2.72;0.90;;;;;;;;;;5088113;28;20034;-76
2022/06/20 11:36:32;;;;;;;6.13;1.25;;;;;;;;;;5055794;28;20040;-76
2022/06/20 11:39:17;;;;;;;3.25;1.10;;;;;;;;;;5089368;28;20376;-76
2022/06/20 11:41:54;;;;;;;5.57;1.13;;;;;;;;;;5081771;28;20024;-77
2022/06/20 11:44:39;;;;;;;4.72;1.30;;;;;;;;;;5064345;28;20042;-77
2022/06/20 11:47:24;;;;;;;7.63;1.02;;;;;;;;;;5086468;28;20114;-77
2022/06/20 11:50:09;;;;;;;5.07;1.23;;;;;;;;;;5078075;28;20028;-77
2022/06/20 11:52:44;;;;;;;5.03;1.05;;;;;;;;;;5093114;28;20027;-77
2022/06/20 11:55:13;;;;;;;8.45;3.75;;;;;;;;;;5075507;28;20107;-77
2022/06/20 11:57:45;;;;;;;9.45;4.22;;;;;;;;;;5078049;28;20031;-75
2022/06/20 12:00:15;;;;;;;8.35;1.23;;;;;;;;;;5078850;28;20108;-75
2022/06/20 12:02:57;;;;;;;5.32;1.23;;;;;;;;;;5063168;28;20028;-76
2022/06/20 12:05:26;;;;;;;5.00;1.02;;;;;;;;;;5079863;28;20173;-76
2022/06/20 12:08:02;;;;;;;4.93;1.17;;;;;;;;;;5092755;28;20130;-78
2022/06/20 12:10:30;;;;;;;5.30;0.95;;;;;;;;;;5069866;28;20032;-77
2022/06/20 12:13:15;;;;;;;6.40;1.00;;;;;;;;;;5083192;28;20047;-77
2022/06/20 12:15:41;;;;;;;3.88;1.35;;;;;;;;;;5087744;28;20383;-76
2022/06/20 12:18:07;;;;;;;4.97;0.90;;;;;;;;;;5076708;28;20022;-78
2022/06/20 12:23:21;;;;;;;5.82;1.10;;;;;;;;;;5088277;28;20050;-76
2022/06/20 12:25:57;;;;;;;7.10;1.33;;;;;;;;;;5066561;28;20029;-76
2022/06/20 12:28:34;;;;;;;3.03;1.05;;;;;;;;;;5048556;28;20553;-76
2022/06/20 12:31:10;;;;;;;6.95;1.25;;;;;;;;;;5085298;28;20052;-76
2022/06/20 12:33:37;;;;;;;4.47;1.02;;;;;;;;;;5071309;28;20106;-76
2022/06/20 12:36:14;;;;;;;4.55;0.93;;;;;;;;;;5071023;28;20296;-77
2022/06/20 12:38:44;;;;;;;5.47;0.80;;;;;;;;;;5077170;28;20460;-75
2022/06/20 12:41:13;;;;;;;2.97;0.90;;;;;;;;;;5086207;28;20063;-75
2022/06/20 12:43:39;;;;;;;2.42;0.80;;;;;;;;;;5084145;28;20297;-73
2022/06/20 12:46:11;;;;;;;5.57;0.98;;;;;;;;;;5077536;28;20035;-76
2022/06/20 12:48:56;;;;;;;4.13;1.00;;;;;;;;;;5077202;28;20024;-76
2022/06/20 12:51:35;;;;;;;5.78;2.83;;;;;;;;;;5070261;28;20154;-74
2022/06/20 12:54:01;;;;;;;8.18;1.27;;;;;;;;;;5080066;28;20032;-74
2022/06/20 12:56:45;;;;;;;5.15;0.90;;;;;;;;;;5080444;28;20105;-74
2022/06/20 12:59:36;;;;;;;5.28;1.08;;;;;;;;;;5070450;28;20348;-74
2022/06/20 13:02:05;;;;;;;3.28;1.00;;;;;;;;;;5059943;28;20489;-74
2022/06/20 13:04:42;;;;;;;4.35;0.90;;;;;;;;;;5080391;28;20027;-74
2022/06/20 13:07:19;;;;;;;7.72;1.40;;;;;;;;;;5083235;28;20404;-74
2022/06/20 13:10:07;;;;;;;4.13;1.30;;;;;;;;;;5060278;28;20024;-75
2022/06/20 13:12:49;;;;;;;5.75;1.27;;;;;;;;;;5078649;28;20032;-75
2022/06/20 13:15:26;;;;;;;2.53;0.97;;;;;;;;;;5071024;28;20032;-74
2022/06/20 13:18:05;;;;;;;5.93;1.38;;;;;;;;;;5082830;28;20033;-75
2022/06/20 13:20:31;;;;;;;2.33;0.77;;;;;;;;;;5076648;28;20037;-75
2022/06/20 13:23:06;;;;;;;4.40;1.67;;;;;;;;;;5087411;28;20023;-74
2022/06/20 13:25:39;;;;;;;2.55;0.80;;;;;;;;;;5083686;28;20519;-74
2022/06/20 13:28:10;;;;;;;3.53;1.00;;;;;;;;;;5079024;28;20028;-75
2022/06/20 13:30:52;;;;;;;5.13;1.17;;;;;;;;;;5078454;28;20096;-75
2022/06/20 13:33:33;;;;;;;3.50;0.90;;;;;;;;;;5081539;28;20024;-75
2022/06/20 13:36:12;;;;;;;5.80;1.13;;;;;;;;;;5097849;28;20048;-75
2022/06/20 13:38:51;;;;;;;4.20;1.00;;;;;;;;;;5075040;28;20132;-74
2022/06/20 13:41:17;;;;;;;2.97;0.80;;;;;;;;;;5080800;28;20119;-74
2022/06/20 13:43:47;;;;;;;2.53;0.70;;;;;;;;;;5072885;28;20727;-75
2022/06/20 13:46:35;;;;;;;7.53;1.70;;;;;;;;;;5082338;28;20036;-75
2022/06/20 13:49:17;;;;;;;4.80;0.90;;;;;;;;;;5077463;28;20060;-75
2022/06/20 13:51:46;;;;;;;5.10;0.90;;;;;;;;;;5080302;28;20032;-75
2022/06/20 13:54:18;;;;;;;3.95;1.30;;;;;;;;;;5092482;28;20103;-76
2022/06/20 13:57:04;;;;;;;6.45;1.13;;;;;;;;;;5086727;28;20082;-74
2022/06/20 13:59:39;;;;;;;5.05;0.98;;;;;;;;;;5074434;28;20032;-76
2022/06/20 14:02:24;;;;;;;3.17;0.75;;;;;;;;;;5083825;28;20025;-76
2022/06/20 14:04:51;;;;;;;3.08;0.77;;;;;;;;;;5088672;28;20085;-75
2022/06/20 14:07:25;;;;;;;1.65;0.63;;;;;;;;;;5085829;28;20048;-75
2022/06/20 14:09:53;;;;;;;6.07;1.00;;;;;;;;;;5081777;28;20036;-76
2022/06/20 14:12:26;;;;;;;5.22;1.27;;;;;;;;;;5092096;28;20380;-75
2022/06/20 14:14:55;;;;;;;6.95;1.20;;;;;;;;;;5076285;28;20033;-75
2022/06/20 14:17:26;;;;;;;8.35;2.03;;;;;;;;;;5089979;28;20035;-73
2022/06/20 14:19:59;;;;;;;6.28;1.85;;;;;;;;;;5086674;28;20413;-74
2022/06/20 14:22:31;;;;;;;5.57;1.30;;;;;;;;;;5081773;28;20444;-73
2022/06/20 14:24:57;;;;;;;;;;;;;;;;;;5059595;28;20053;-74
2022/06/20 14:27:29;;;;;;;6.80;1.13;;;;;;;;;;5072451;28;19951;-73
2022/06/20 14:30:04;;;;;;;7.78;1.00;;;;;;;;;;5083652;28;20027;-74
2022/06/20 14:33:06;;;;;;;7.00;1.52;;;;;;;;;;5086158;28;20028;-74
2022/06/20 14:35:38;;;;;;;5.97;1.20;;;;;;;;;;5026144;28;20045;-74
2022/06/20 14:38:18;;;;;;;7.00;1.45;;;;;;;;;;5068489;28;20054;-75
2022/06/20 14:40:44;;;;;;;6.18;0.90;;;;;;;;;;5079051;28;20086;-74
2022/06/20 14:43:20;;;;;;;6.70;0.95;;;;;;;;;;5070825;28;20065;-74
2022/06/20 14:46:01;;;;;;;4.40;1.20;;;;;;;;;;5076330;28;20033;-75
2022/06/20 14:48:30;;;;;;;2.65;1.00;;;;;;;;;;5076673;28;20028;-74
2022/06/20 14:51:03;;;;;;;4.57;0.70;;;;;;;;;;5084606;28;20099;-76
2022/06/20 14:53:29;;;;;;;;;;;;;;;;;;5084314;28;20468;-75
2022/06/20 14:56:03;;;;;;;3.88;0.93;;;;;;;;;;5090382;28;19908;-75
2022/06/20 14:58:49;;;;;;;1.27;0.65;;;;;;;;;;5076192;28;20101;-75
2022/06/20 15:01:32;;;;;;;3.78;0.80;;;;;;;;;;5089912;28;20078;-75
2022/06/20 15:04:04;;;;;;;4.35;1.15;;;;;;;;;;5088424;28;20024;-76
2022/06/20 15:06:30;;;;;;;2.35;0.80;;;;;;;;;;5076826;28;20049;-75
2022/06/20 15:08:59;;;;;;;6.00;1.20;;;;;;;;;;5077349;28;20100;-75
2022/06/20 15:11:28;;;;;;;5.97;0.88;;;;;;;;;;5075385;28;20099;-75
2022/06/20 15:14:13;;;;;;;5.68;1.50;;;;;;;;;;5082762;28;20032;-75
2022/06/20 15:16:43;;;;;;;4.95;1.27;;;;;;;;;;5091143;28;20571;-75
2022/06/20 15:19:24;;;;;;;5.10;1.20;;;;;;;;;;5065495;28;20388;-75
2022/06/20 15:22:02;;;;;;;6.10;1.20;;;;;;;;;;5086068;28;20449;-75
2022/06/20 15:24:37;;;;;;;6.30;1.35;;;;;;;;;;5076954;28;20111;-75
2022/06/20 15:27:14;;;;;;;6.78;1.30;;;;;;;;;;5074402;28;20396;-76
2022/06/20 15:29:58;;;;;;;6.47;1.25;;;;;;;;;;5075917;28;20028;-75